createdAt,value
2019-02-08T00:00:20.772Z,63.14
2019-02-08T00:03:51.052Z,63.12
2019-02-08T00:07:21.193Z,63.13
2019-02-08T00:10:51.309Z,63.15
2019-02-08T00:14:21.399Z,63.16
2019-02-08T00:17:51.519Z,63.16
2019-02-08T00:21:21.621Z,63.15
2019-02-08T00:24:51.868Z,63.16
2019-02-08T00:28:21.952Z,63.16
2019-02-08T00:31:52.198Z,63.18
2019-02-08T00:35:22.527Z,63.19
2019-02-08T00:38:52.767Z,63.19
2019-02-08T00:42:22.926Z,63.2
2019-02-08T00:45:53.006Z,63.22
2019-02-08T00:49:23.186Z,63.2
2019-02-08T00:52:54.755Z,63.24
2019-02-08T00:56:24.875Z,63.23
2019-02-08T00:59:54.928Z,63.22
2019-02-08T01:03:25.054Z,63.24
2019-02-08T01:06:55.314Z,63.25
2019-02-08T01:10:27.165Z,63.26
2019-02-08T01:13:57.373Z,63.27
2019-02-08T01:17:27.923Z,63.28
2019-02-08T01:20:58.402Z,63.3
2019-02-08T01:24:28.523Z,63.31
2019-02-08T01:27:58.864Z,63.34
2019-02-08T01:31:28.922Z,63.37
2019-02-08T01:34:59.051Z,63.36
2019-02-08T01:38:29.101Z,63.4
2019-02-08T01:41:59.190Z,63.41
2019-02-08T01:45:30.344Z,63.42
2019-02-08T01:49:00.640Z,63.45
2019-02-08T01:52:30.789Z,63.47
2019-02-08T01:56:32.619Z,63.47
2019-02-08T02:00:18.879Z,63.52
2019-02-08T02:03:48.968Z,63.52
2019-02-08T02:07:19.077Z,63.52
2019-02-08T02:10:49.362Z,63.56
2019-02-08T02:14:19.597Z,63.56
2019-02-08T02:17:49.747Z,63.58
2019-02-08T02:21:19.736Z,63.61
2019-02-08T02:24:49.976Z,63.63
2019-02-08T02:28:20.027Z,63.64
2019-02-08T02:31:50.233Z,63.66
2019-02-08T02:35:20.945Z,63.68
2019-02-08T02:38:51.056Z,63.71
2019-02-08T02:42:21.134Z,63.75
2019-02-08T02:45:51.334Z,63.77
2019-02-08T02:49:21.444Z,63.77
2019-02-08T02:52:51.676Z,63.8
2019-02-08T02:56:21.843Z,63.83
2019-02-08T02:59:52.362Z,63.82
2019-02-08T03:03:22.649Z,63.86
2019-02-08T03:06:52.912Z,63.86
2019-02-08T03:10:23.111Z,63.91
2019-02-08T03:13:53.361Z,63.91
2019-02-08T03:17:23.446Z,63.92
2019-02-08T03:20:53.651Z,63.93
2019-02-08T03:24:23.810Z,63.96
2019-02-08T03:27:54.229Z,63.97
2019-02-08T03:31:24.380Z,63.99
2019-02-08T03:34:54.625Z,63.99
2019-02-08T03:38:24.749Z,64.03
2019-02-08T03:41:54.818Z,64.03
2019-02-08T03:45:26.558Z,64.04
2019-02-08T03:48:56.717Z,64.05
2019-02-08T03:52:26.763Z,64.06
2019-02-08T03:55:58.679Z,64.07
2019-02-08T03:59:29.156Z,64.11
2019-02-08T04:00:21.736Z,64.12
2019-02-08T04:04:09.337Z,64.12
2019-02-08T04:07:39.435Z,64.13
2019-02-08T04:11:09.605Z,64.14
2019-02-08T04:14:39.805Z,64.15
2019-02-08T04:18:10.015Z,64.15
2019-02-08T04:21:40.050Z,64.14
2019-02-08T04:25:11.363Z,64.16
2019-02-08T04:28:41.473Z,64.17
2019-02-08T04:32:11.663Z,64.18
2019-02-08T04:35:41.752Z,64.2
2019-02-08T04:39:11.983Z,64.22
2019-02-08T04:42:42.192Z,64.22
2019-02-08T04:46:12.277Z,64.24
2019-02-08T04:49:42.416Z,64.24
2019-02-08T04:53:12.501Z,64.26
2019-02-08T04:56:42.612Z,64.28
2019-02-08T05:00:17.401Z,64.27
2019-02-08T05:03:49.099Z,64.29
2019-02-08T05:07:19.199Z,64.31
2019-02-08T05:10:49.229Z,64.33
2019-02-08T05:14:19.410Z,64.33
2019-02-08T05:17:49.518Z,64.34
2019-02-08T05:21:19.687Z,64.35
2019-02-08T05:24:49.809Z,64.36
2019-02-08T05:28:19.927Z,64.37
2019-02-08T05:31:50.008Z,64.34
2019-02-08T05:35:20.086Z,64.38
2019-02-08T05:38:50.173Z,64.37
2019-02-08T05:42:20.265Z,64.39
2019-02-08T05:45:50.275Z,64.37
2019-02-08T05:49:20.425Z,64.38
2019-02-08T05:52:50.494Z,64.4
2019-02-08T05:56:20.684Z,64.42
2019-02-08T05:59:50.814Z,64.43
2019-02-08T06:00:20.217Z,64.44
2019-02-08T06:03:51.493Z,64.44
2019-02-08T06:07:21.593Z,64.45
2019-02-08T06:10:51.711Z,64.46
2019-02-08T06:14:21.740Z,64.44
2019-02-08T06:17:52.004Z,64.45
2019-02-08T06:21:22.052Z,64.46
2019-02-08T06:24:52.251Z,64.48
2019-02-08T06:28:22.441Z,64.47
2019-02-08T06:31:52.690Z,64.46
2019-02-08T06:35:23.590Z,64.48
2019-02-08T06:38:53.790Z,64.44
2019-02-08T06:42:23.850Z,64.42
2019-02-08T06:45:54.080Z,64.43
2019-02-08T06:49:24.276Z,64.42
2019-02-08T06:52:54.700Z,64.41
2019-02-08T06:58:49.634Z,64.36
2019-02-08T07:07:16.428Z,64.34
2019-02-08T07:10:55.327Z,64.31
2019-02-08T07:14:32.987Z,64.3
2019-02-08T07:18:12.657Z,64.29
2019-02-08T07:21:49.437Z,64.3
2019-02-08T07:29:22.076Z,64.29
2019-02-08T07:33:00.387Z,64.26
2019-02-08T07:38:00.724Z,64.24
2019-02-08T07:42:13.164Z,64.22
2019-02-08T07:45:57.492Z,64.21
2019-02-08T07:49:41.316Z,64.21
2019-02-08T07:53:19.918Z,64.2
2019-02-08T07:57:05.255Z,64.17
2019-02-08T08:04:10.103Z,64.13
2019-02-08T08:10:20.507Z,64.1
2019-02-08T08:17:48.547Z,64.05
2019-02-08T08:21:34.976Z,64.03
2019-02-08T08:25:19.560Z,64.01
2019-02-08T08:30:10.511Z,63.98
2019-02-08T08:33:51.531Z,63.95
2019-02-08T08:37:54.741Z,63.91
2019-02-08T08:42:43.434Z,63.9
2019-02-08T08:46:58.970Z,63.84
2019-02-08T08:51:16.223Z,63.8
2019-02-08T09:03:01.454Z,63.7
2019-02-08T09:09:14.490Z,63.63
2019-02-08T09:12:59.804Z,63.62
2019-02-08T09:16:42.817Z,63.58
2019-02-08T09:23:06.894Z,63.48
2019-02-08T09:37:22.547Z,63.31
2019-02-08T09:43:47.894Z,63.26
2019-02-08T09:47:38.008Z,63.24
2019-02-08T09:51:36.342Z,63.19
2019-02-08T10:00:39.761Z,63.12
2019-02-08T10:07:07.624Z,63.02
2019-02-08T10:21:43.830Z,62.9
2019-02-08T10:27:55.341Z,62.77
2019-02-08T10:40:26.671Z,62.59
2019-02-08T10:49:24.166Z,62.38
2019-02-08T10:53:53.248Z,62.3
2019-02-08T11:08:34.748Z,61.95
2019-02-08T11:12:50.918Z,61.86
2019-02-08T11:16:46.077Z,61.71
2019-02-08T11:20:16.316Z,61.62
2019-02-08T11:23:46.524Z,61.56
2019-02-08T11:27:16.689Z,61.48
2019-02-08T11:30:46.941Z,61.39
2019-02-08T11:34:17.154Z,61.21
2019-02-08T11:37:47.377Z,61.11
2019-02-08T11:41:17.801Z,61.06
2019-02-08T11:44:47.907Z,60.93
2019-02-08T11:48:18.055Z,60.86
2019-02-08T11:51:48.263Z,60.77
2019-02-08T11:55:18.362Z,60.6
2019-02-08T11:58:48.481Z,60.44
2019-02-08T12:00:19.890Z,60.39
2019-02-08T12:03:50.070Z,60.25
2019-02-08T12:07:20.242Z,60.15
2019-02-08T12:10:50.478Z,60.01
2019-02-08T12:14:20.595Z,59.89
2019-02-08T12:17:51.694Z,59.74
2019-02-08T12:21:21.925Z,59.6
2019-02-08T12:24:52.631Z,59.51
2019-02-08T12:28:22.761Z,59.28
2019-02-08T12:31:52.838Z,59.18
2019-02-08T12:35:23.234Z,59.03
2019-02-08T12:38:53.373Z,58.89
2019-02-08T12:42:23.435Z,58.74
2019-02-08T12:45:53.617Z,58.59
2019-02-08T12:49:23.780Z,58.46
2019-02-08T12:52:53.802Z,58.35
2019-02-08T12:56:23.985Z,58.27
2019-02-08T12:59:54.248Z,58.16
2019-02-08T13:03:24.384Z,58.05
2019-02-08T13:06:54.513Z,57.92
2019-02-08T13:10:24.786Z,57.9
2019-02-08T13:13:54.830Z,57.81
2019-02-08T13:17:24.881Z,57.74
2019-02-08T13:20:56.043Z,57.61
2019-02-08T13:24:26.121Z,57.57
2019-02-08T13:27:56.289Z,57.48
2019-02-08T13:31:26.471Z,57.43
2019-02-08T13:34:56.524Z,57.38
2019-02-08T13:38:26.596Z,57.29
2019-02-08T13:41:56.690Z,57.17
2019-02-08T13:45:26.972Z,57.1
2019-02-08T13:48:57.002Z,57.02
2019-02-08T13:52:27.077Z,56.93
2019-02-08T13:55:57.190Z,56.82
2019-02-08T13:59:27.373Z,56.73
2019-02-08T14:00:19.486Z,56.71
2019-02-08T14:03:49.600Z,56.63
2019-02-08T14:07:19.653Z,56.57
2019-02-08T14:10:49.647Z,56.5
2019-02-08T14:14:19.737Z,56.39
2019-02-08T14:17:49.992Z,56.36
2019-02-08T14:21:21.799Z,56.28
2019-02-08T14:24:51.941Z,56.21
2019-02-08T14:28:22.041Z,56.15
2019-02-08T14:31:53.093Z,56.12
2019-02-08T14:35:23.567Z,56.04
2019-02-08T14:38:53.780Z,55.99
2019-02-08T14:42:23.942Z,55.94
2019-02-08T14:45:54.142Z,55.88
2019-02-08T14:49:24.325Z,55.86
2019-02-08T14:52:55.381Z,55.82
2019-02-08T14:56:25.444Z,55.79
2019-02-08T14:59:55.554Z,55.78
2019-02-08T15:03:25.713Z,55.69
2019-02-08T15:06:55.854Z,55.67
2019-02-08T15:10:28.916Z,55.63
2019-02-08T15:13:59.048Z,55.62
2019-02-08T15:17:29.256Z,55.59
2019-02-08T15:20:59.534Z,55.59
2019-02-08T15:24:30.722Z,55.56
2019-02-08T15:28:00.892Z,55.54
2019-02-08T15:31:31.050Z,55.53
2019-02-08T15:35:01.310Z,55.54
2019-02-08T15:38:31.385Z,55.53
2019-02-08T15:42:01.733Z,55.52
2019-02-08T15:45:31.911Z,55.52
2019-02-08T15:49:02.489Z,55.5
2019-02-08T15:52:32.727Z,55.52
2019-02-08T15:56:07.646Z,55.49
2019-02-08T15:59:37.833Z,55.49
2019-02-08T16:00:19.383Z,55.49
2019-02-08T16:03:49.532Z,55.48
2019-02-08T16:07:19.699Z,55.48
2019-02-08T16:10:49.898Z,55.5
2019-02-08T16:14:19.982Z,55.49
2019-02-08T16:17:50.503Z,55.5
2019-02-08T16:21:20.583Z,55.51
2019-02-08T16:24:51.830Z,55.51
2019-02-08T16:28:21.992Z,55.52
2019-02-08T16:31:52.073Z,55.53
2019-02-08T16:35:23.594Z,55.53
2019-02-08T16:38:53.723Z,55.56
2019-02-08T16:42:23.950Z,55.58
2019-02-08T16:45:54.389Z,55.59
2019-02-08T16:49:24.427Z,55.59
2019-02-08T16:52:54.865Z,55.63
2019-02-08T16:56:24.992Z,55.62
2019-02-08T16:59:55.190Z,55.64
2019-02-08T17:03:25.359Z,55.68
2019-02-08T17:06:55.477Z,55.68
2019-02-08T17:10:25.626Z,55.75
2019-02-08T17:13:55.743Z,55.77
2019-02-08T17:17:25.811Z,55.8
2019-02-08T17:20:56.010Z,55.84
2019-02-08T17:24:26.198Z,55.89
2019-02-08T17:27:57.504Z,55.94
2019-02-08T17:31:27.524Z,55.97
2019-02-08T17:34:57.670Z,56.03
2019-02-08T17:38:27.670Z,56.07
2019-02-08T17:41:57.910Z,56.14
2019-02-08T17:45:28.178Z,56.18
2019-02-08T17:48:58.235Z,56.21
2019-02-08T17:52:28.373Z,56.25
2019-02-08T17:55:58.541Z,56.31
2019-02-08T17:59:28.629Z,56.33
2019-02-08T18:00:21.320Z,56.35
2019-02-08T18:03:51.437Z,56.4
2019-02-08T18:07:21.495Z,56.44
2019-02-08T18:10:51.824Z,56.49
2019-02-08T18:14:21.932Z,56.52
2019-02-08T18:17:52.080Z,56.55
2019-02-08T18:21:22.189Z,56.59
2019-02-08T18:24:52.278Z,56.63
2019-02-08T18:28:23.349Z,56.67
2019-02-08T18:31:53.484Z,56.67
2019-02-08T18:35:23.841Z,56.72
2019-02-08T18:38:54.049Z,56.76
2019-02-08T18:42:24.237Z,56.78
2019-02-08T18:45:54.505Z,56.8
2019-02-08T18:49:24.603Z,56.81
2019-02-08T18:52:54.765Z,56.82
2019-02-08T18:56:24.890Z,56.85
2019-02-08T18:59:55.081Z,56.87
2019-02-08T19:03:25.207Z,56.93
2019-02-08T19:06:55.354Z,56.91
2019-02-08T19:10:25.563Z,56.92
2019-02-08T19:13:55.762Z,56.93
2019-02-08T19:17:25.838Z,56.93
2019-02-08T19:20:56.042Z,56.95
2019-02-08T19:24:26.155Z,56.97
2019-02-08T19:27:56.245Z,56.98
2019-02-08T19:31:27.401Z,56.96
2019-02-08T19:34:57.539Z,56.99
2019-02-08T19:38:27.717Z,56.99
2019-02-08T19:41:57.915Z,57.02
2019-02-08T19:45:28.135Z,57.03
2019-02-08T19:48:58.391Z,57.07
2019-02-08T19:52:28.493Z,57.1
2019-02-08T19:55:58.647Z,57.11
2019-02-08T19:59:28.805Z,57.16
2019-02-08T20:00:19.170Z,57.16
2019-02-08T20:03:49.242Z,57.18
2019-02-08T20:07:19.271Z,57.22
2019-02-08T20:10:49.539Z,57.25
2019-02-08T20:14:19.757Z,57.27
2019-02-08T20:17:50.005Z,57.3
2019-02-08T20:21:20.513Z,57.33
2019-02-08T20:24:50.695Z,57.35
2019-02-08T20:28:20.921Z,57.4
2019-02-08T20:31:52.027Z,57.37
2019-02-08T20:35:22.859Z,57.4
2019-02-08T20:38:53.073Z,57.41
2019-02-08T20:42:23.235Z,57.45
2019-02-08T20:45:53.410Z,57.46
2019-02-08T20:49:23.728Z,57.48
2019-02-08T20:52:54.275Z,57.52
2019-02-08T20:56:24.413Z,57.52
2019-02-08T20:59:54.621Z,57.53
2019-02-08T21:03:24.659Z,57.58
2019-02-08T21:06:54.848Z,57.61
2019-02-08T21:10:25.135Z,57.64
2019-02-08T21:13:55.325Z,57.66
2019-02-08T21:17:25.401Z,57.67
2019-02-08T21:20:55.519Z,57.71
2019-02-08T21:24:25.800Z,57.73
2019-02-08T21:27:55.927Z,57.75
2019-02-08T21:31:25.952Z,57.77
2019-02-08T21:34:57.161Z,57.81
2019-02-08T21:38:27.289Z,57.82
2019-02-08T21:41:57.417Z,57.84
2019-02-08T21:45:29.495Z,57.85
2019-02-08T21:48:59.652Z,57.89
2019-02-08T21:52:29.771Z,57.9
2019-02-08T21:56:00.046Z,57.94
2019-02-08T21:59:30.116Z,57.96
2019-02-08T22:00:21.947Z,57.98
2019-02-08T22:03:52.074Z,58
2019-02-08T22:07:22.252Z,58.02
2019-02-08T22:10:52.570Z,58.07
2019-02-08T22:14:22.698Z,58.09
2019-02-08T22:17:53.015Z,58.15
2019-02-08T22:21:23.163Z,58.2
2019-02-08T22:24:53.462Z,58.25
2019-02-08T22:28:23.599Z,58.3
2019-02-08T22:31:53.787Z,58.34
2019-02-08T22:35:25.655Z,58.37
2019-02-08T22:38:55.903Z,58.42
2019-02-08T22:42:25.981Z,58.46
2019-02-08T22:45:56.179Z,58.51
2019-02-08T22:49:26.287Z,58.56
2019-02-08T22:52:56.725Z,58.62
2019-02-08T22:56:26.943Z,58.67
2019-02-08T22:59:57.071Z,58.7
2019-02-08T23:03:27.208Z,58.76
2019-02-08T23:06:57.448Z,58.8
2019-02-08T23:10:27.714Z,58.85
2019-02-08T23:13:58.035Z,58.91
2019-02-08T23:17:28.121Z,58.96
2019-02-08T23:20:58.128Z,59.02
2019-02-08T23:24:28.156Z,59.1
2019-02-08T23:27:58.424Z,59.13
2019-02-08T23:31:28.443Z,59.2
2019-02-08T23:34:58.551Z,59.26
2019-02-08T23:38:30.248Z,59.32
2019-02-08T23:42:00.275Z,59.37
2019-02-08T23:45:30.436Z,59.41
2019-02-08T23:49:00.531Z,59.46
2019-02-08T23:52:30.599Z,59.51
2019-02-08T23:56:00.857Z,59.56
2019-02-08T23:59:37.939Z,59.62
